createdAt,value
2022-09-26T00:00:17.482Z,98194.78
2022-09-26T00:02:19.819Z,98207.00
2022-09-26T00:04:29.046Z,98194.00
2022-09-26T00:06:32.603Z,98206.94
2022-09-26T00:08:36.588Z,98198.28
2022-09-26T00:10:38.642Z,98193.06
2022-09-26T00:12:41.422Z,98201.81
2022-09-26T00:14:43.450Z,98195.00
2022-09-26T00:16:48.294Z,98199.31
2022-09-26T00:18:54.777Z,98201.97
2022-09-26T00:21:08.869Z,98199.53
2022-09-26T00:23:16.713Z,98198.72
2022-09-26T00:25:19.576Z,98191.91
2022-09-26T00:27:22.454Z,98196.28
2022-09-26T00:29:24.757Z,98194.56
2022-09-26T00:31:32.421Z,98197.13
2022-09-26T00:33:34.823Z,98205.78
2022-09-26T00:35:37.324Z,98204.06
2022-09-26T00:37:39.232Z,98210.09
2022-09-26T00:39:41.435Z,98208.44
2022-09-26T00:41:45.002Z,98219.69
2022-09-26T00:43:49.962Z,98211.78
2022-09-26T00:45:52.126Z,98211.00
2022-09-26T00:48:01.220Z,98216.19
2022-09-26T00:50:29.191Z,98215.19
2022-09-26T00:52:54.011Z,98220.41
2022-09-26T00:55:00.183Z,98223.03
2022-09-26T00:57:09.666Z,98217.78
2022-09-26T00:59:29.884Z,98222.97
2022-09-26T01:01:32.318Z,98227.28
2022-09-26T01:03:36.741Z,98216.06
2022-09-26T01:05:41.127Z,98216.03
2022-09-26T01:07:43.770Z,98209.13
2022-09-26T01:09:48.314Z,98184.22
2022-09-26T01:11:50.501Z,98228.03
2022-09-26T01:13:55.093Z,98217.63
2022-09-26T01:15:59.273Z,98207.28
2022-09-26T01:18:02.929Z,98213.31
2022-09-26T01:20:23.088Z,98218.47
2022-09-26T01:22:42.932Z,98221.09
2022-09-26T01:25:03.861Z,98219.41
2022-09-26T01:27:30.250Z,98212.56
2022-09-26T01:29:50.487Z,98225.56
2022-09-26T01:32:14.338Z,98224.69
2022-09-26T01:34:33.880Z,98223.06
2022-09-26T01:36:59.310Z,98226.59
2022-09-26T01:39:14.620Z,98225.78
2022-09-26T01:41:51.447Z,98235.41
2022-09-26T01:44:03.265Z,98236.41
2022-09-26T01:46:29.841Z,98231.22
2022-09-26T01:48:39.736Z,98233.06
2022-09-26T01:50:45.805Z,98236.63
2022-09-26T01:52:51.414Z,98218.66
2022-09-26T01:55:26.007Z,98234.97
2022-09-26T01:57:38.430Z,98219.72
2022-09-26T01:59:51.432Z,98240.44
2022-09-26T02:01:59.257Z,98245.66
2022-09-26T02:04:11.054Z,98244.91
2022-09-26T02:06:23.370Z,98256.22
2022-09-26T02:08:37.697Z,98238.22
2022-09-26T02:10:48.247Z,98231.34
2022-09-26T02:12:55.819Z,98248.66
2022-09-26T02:15:03.230Z,98254.81
2022-09-26T02:17:10.193Z,98253.19
2022-09-26T02:19:27.778Z,98262.75
2022-09-26T02:21:30.050Z,98256.03
2022-09-26T02:23:33.590Z,98251.78
2022-09-26T02:25:37.741Z,98262.25
2022-09-26T02:27:40.528Z,98257.13
2022-09-26T02:29:44.264Z,98271.75
2022-09-26T02:32:13.126Z,98271.69
2022-09-26T02:34:15.566Z,98255.25
2022-09-26T02:36:20.082Z,98257.81
2022-09-26T02:38:23.913Z,98272.31
2022-09-26T02:41:05.810Z,98278.28
2022-09-26T02:43:16.889Z,98279.06
2022-09-26T02:45:19.015Z,98282.56
2022-09-26T02:47:33.158Z,98273.03
2022-09-26T02:49:45.726Z,98271.22
2022-09-26T02:52:15.879Z,98282.41
2022-09-26T02:54:39.761Z,98278.03
2022-09-26T02:56:46.262Z,98274.47
2022-09-26T02:59:17.733Z,98271.88
2022-09-26T03:01:40.511Z,98267.38
2022-09-26T03:04:00.085Z,98269.97
2022-09-26T03:06:06.090Z,98255.41
2022-09-26T03:08:19.927Z,98255.31
2022-09-26T03:10:23.592Z,98262.13
2022-09-26T03:12:28.217Z,98267.34
2022-09-26T03:14:34.327Z,98275.03
2022-09-26T03:16:39.628Z,98270.69
2022-09-26T03:18:55.624Z,98280.13
2022-09-26T03:20:59.091Z,98274.09
2022-09-26T03:23:03.074Z,98271.50
2022-09-26T03:25:07.814Z,98278.31
2022-09-26T03:27:12.996Z,98273.09
2022-09-26T03:29:15.404Z,98269.56
2022-09-26T03:31:18.999Z,98280.81
2022-09-26T03:33:28.904Z,98281.69
2022-09-26T03:35:31.525Z,98282.53
2022-09-26T03:37:37.289Z,98273.88
2022-09-26T03:39:39.563Z,98271.28
2022-09-26T03:41:48.523Z,98280.81
2022-09-26T03:44:17.945Z,98274.75
2022-09-26T03:46:40.177Z,98277.41
2022-09-26T03:48:44.487Z,98280.78
2022-09-26T03:50:46.607Z,98273.84
2022-09-26T03:52:48.762Z,98290.19
2022-09-26T03:54:51.514Z,98284.19
2022-09-26T03:56:55.600Z,98289.28
2022-09-26T03:58:57.721Z,98273.84
2022-09-26T04:01:26.643Z,98296.06
2022-09-26T04:03:31.991Z,98294.34
2022-09-26T04:05:34.216Z,98287.47
2022-09-26T04:07:44.302Z,98305.59
2022-09-26T04:09:46.695Z,98289.16
2022-09-26T04:11:53.269Z,98283.88
2022-09-26T04:13:56.812Z,98288.13
2022-09-26T04:16:07.683Z,98294.19
2022-09-26T04:18:10.092Z,98287.19
2022-09-26T04:20:15.654Z,98292.44
2022-09-26T04:22:19.385Z,98289.78
2022-09-26T04:24:21.594Z,98301.84
2022-09-26T04:26:26.646Z,98293.09
2022-09-26T04:28:28.967Z,98298.16
2022-09-26T04:30:31.087Z,98297.19
2022-09-26T04:32:39.073Z,98298.00
2022-09-26T04:35:10.098Z,98299.72
2022-09-26T04:37:13.545Z,98296.13
2022-09-26T04:39:17.988Z,98308.19
2022-09-26T04:41:33.664Z,98312.47
2022-09-26T04:43:36.230Z,98308.97
2022-09-26T04:45:44.690Z,98304.63
2022-09-26T04:47:50.041Z,98311.56
2022-09-26T04:49:57.656Z,98314.16
2022-09-26T04:52:00.578Z,98322.88
2022-09-26T04:54:02.729Z,98310.75
2022-09-26T04:56:11.748Z,98314.13
2022-09-26T04:58:15.659Z,98322.66
2022-09-26T05:00:18.697Z,98310.53
2022-09-26T05:02:21.050Z,98320.84
2022-09-26T05:04:27.469Z,98326.13
2022-09-26T05:06:30.868Z,98309.84
2022-09-26T05:08:36.400Z,98329.72
2022-09-26T05:10:38.816Z,98322.78
2022-09-26T05:12:40.852Z,98328.00
2022-09-26T05:14:44.471Z,98334.13
2022-09-26T05:16:47.599Z,98318.50
2022-09-26T05:18:52.324Z,98334.03
2022-09-26T05:20:56.666Z,98337.41
2022-09-26T05:22:59.163Z,98323.56
2022-09-26T05:25:20.064Z,98315.69
2022-09-26T05:27:24.384Z,98331.06
2022-09-26T05:29:26.662Z,98321.31
2022-09-26T05:31:39.830Z,98337.59
2022-09-26T05:33:42.922Z,98325.50
2022-09-26T05:35:49.772Z,98333.94
2022-09-26T05:38:03.371Z,98341.69
2022-09-26T05:40:25.632Z,98334.84
2022-09-26T05:42:28.299Z,98336.50
2022-09-26T05:44:31.004Z,98333.88
2022-09-26T05:46:35.196Z,98339.84
2022-09-26T05:48:44.072Z,98326.03
2022-09-26T05:50:52.003Z,98343.72
2022-09-26T05:53:00.864Z,98349.09
2022-09-26T05:55:03.422Z,98349.50
2022-09-26T05:57:35.078Z,98346.44
2022-09-26T05:59:37.430Z,98347.00
2022-09-26T06:02:05.537Z,98339.94
2022-09-26T06:04:29.539Z,98351.25
2022-09-26T06:06:48.936Z,98343.22
2022-09-26T06:08:52.648Z,98350.13
2022-09-26T06:11:06.427Z,98344.97
2022-09-26T06:13:08.665Z,98354.75
2022-09-26T06:15:25.021Z,98365.50
2022-09-26T06:17:27.218Z,98364.88
2022-09-26T06:19:29.411Z,98359.00
2022-09-26T06:21:31.551Z,98364.44
2022-09-26T06:23:45.084Z,98362.19
2022-09-26T06:25:47.719Z,98372.66
2022-09-26T06:27:50.313Z,98373.63
2022-09-26T06:29:52.419Z,98366.72
2022-09-26T06:31:54.574Z,98373.63
2022-09-26T06:34:16.972Z,98377.09
2022-09-26T06:36:25.308Z,98374.38
2022-09-26T06:38:28.611Z,98368.19
2022-09-26T06:40:32.497Z,98381.28
2022-09-26T06:42:38.513Z,98366.53
2022-09-26T06:44:59.735Z,98384.69
2022-09-26T06:47:06.829Z,98381.16
2022-09-26T06:49:13.281Z,98377.72
2022-09-26T06:51:21.066Z,98372.25
2022-09-26T06:53:23.440Z,98378.97
2022-09-26T06:55:26.041Z,98383.13
2022-09-26T06:57:30.159Z,98382.03
2022-09-26T06:59:32.392Z,98377.69
2022-09-26T07:01:46.322Z,98388.16
2022-09-26T07:04:17.385Z,98382.38
2022-09-26T07:06:42.372Z,98388.66
2022-09-26T07:09:01.376Z,98386.28
2022-09-26T07:13:47.221Z,98391.84
2022-09-26T07:15:50.681Z,98402.19
2022-09-26T07:18:13.579Z,98405.66
2022-09-26T07:20:38.111Z,98384.94
2022-09-26T07:22:45.097Z,98401.44
2022-09-26T07:24:50.385Z,98409.31
2022-09-26T07:26:52.726Z,98402.34
2022-09-26T07:28:55.220Z,98389.41
2022-09-26T07:31:00.670Z,98401.16
2022-09-26T07:33:23.671Z,98412.22
2022-09-26T07:35:28.689Z,98415.63
2022-09-26T07:37:32.191Z,98430.38
2022-09-26T07:39:34.977Z,98427.72
2022-09-26T07:41:37.135Z,98413.00
2022-09-26T07:44:41.195Z,98417.41
2022-09-26T07:46:20.068Z,98425.13
2022-09-26T07:48:44.820Z,98425.00
2022-09-26T07:51:12.828Z,98419.69
2022-09-26T07:53:20.424Z,98428.22
2022-09-26T07:56:05.253Z,98432.22
2022-09-26T07:58:27.990Z,98418.88
2022-09-26T08:00:44.863Z,98428.97
2022-09-26T08:03:01.176Z,98434.44
2022-09-26T08:05:05.910Z,98421.63
2022-09-26T08:07:10.005Z,98429.59
2022-09-26T08:09:17.851Z,98427.88
2022-09-26T08:11:38.744Z,98434.94
2022-09-26T08:13:55.369Z,98438.91
2022-09-26T08:16:23.650Z,98435.22
2022-09-26T08:18:29.216Z,98438.88
2022-09-26T08:20:32.310Z,98438.38
2022-09-26T08:22:35.179Z,98446.41
2022-09-26T08:24:37.397Z,98448.03
2022-09-26T08:26:55.625Z,98448.34
2022-09-26T08:29:02.288Z,98445.13
2022-09-26T08:31:05.994Z,98456.34
2022-09-26T08:33:11.685Z,98455.03
2022-09-26T08:35:15.148Z,98457.00
2022-09-26T08:37:29.607Z,98451.75
2022-09-26T08:39:57.991Z,98453.66
2022-09-26T08:42:52.250Z,98457.41
2022-09-26T08:45:47.878Z,98465.44
2022-09-26T08:48:28.593Z,98467.78
2022-09-26T08:51:03.476Z,98468.13
2022-09-26T08:53:16.966Z,98478.53
2022-09-26T08:55:37.512Z,98474.22
2022-09-26T08:57:45.103Z,98453.06
2022-09-26T08:59:49.164Z,98474.94
2022-09-26T09:01:58.631Z,98480.72
2022-09-26T09:04:15.770Z,98480.25
2022-09-26T09:06:19.167Z,98474.66
2022-09-26T09:08:31.805Z,98477.06
2022-09-26T09:10:51.268Z,98475.47
2022-09-26T09:13:12.561Z,98488.56
2022-09-26T09:15:44.003Z,98490.56
2022-09-26T09:18:14.472Z,98495.06
2022-09-26T09:21:21.641Z,98490.34
2022-09-26T09:23:53.168Z,98486.63
2022-09-26T09:29:10.530Z,98496.06
2022-09-26T09:31:17.294Z,98492.03
2022-09-26T09:33:53.285Z,98484.00
2022-09-26T09:36:26.163Z,98491.59
2022-09-26T09:39:07.763Z,98495.06
2022-09-26T09:41:44.940Z,98484.13
2022-09-26T09:43:52.014Z,98500.28
2022-09-26T09:46:01.853Z,98509.00
2022-09-26T09:48:04.682Z,98482.91
2022-09-26T09:50:40.076Z,98505.69
2022-09-26T09:52:45.256Z,98505.41
2022-09-26T09:55:02.401Z,98513.84
2022-09-26T09:57:24.450Z,98514.25
2022-09-26T09:59:36.164Z,98513.34
2022-09-26T10:01:46.442Z,98504.97
2022-09-26T10:04:21.112Z,98509.22
2022-09-26T10:06:44.188Z,98513.66
2022-09-26T10:08:46.680Z,98512.16
2022-09-26T10:11:41.800Z,98520.50
2022-09-26T10:14:07.734Z,98514.03
2022-09-26T10:16:28.448Z,98511.19
2022-09-26T10:18:54.160Z,98516.03
2022-09-26T10:21:12.241Z,98510.09
2022-09-26T10:23:39.896Z,98521.75
2022-09-26T10:25:50.188Z,98519.28
2022-09-26T10:27:57.178Z,98519.34
2022-09-26T10:30:18.480Z,98524.88
2022-09-26T10:32:24.648Z,98532.97
2022-09-26T10:34:38.873Z,98529.28
2022-09-26T10:36:41.147Z,98536.88
2022-09-26T10:39:34.514Z,98535.22
2022-09-26T10:41:42.054Z,98538.00
2022-09-26T10:43:52.839Z,98530.81
2022-09-26T10:46:27.746Z,98543.66
2022-09-26T10:48:58.411Z,98548.31
2022-09-26T10:51:45.688Z,98533.72
2022-09-26T10:53:52.966Z,98539.78
2022-09-26T10:56:01.469Z,98532.81
2022-09-26T10:58:15.226Z,98540.59
2022-09-26T11:00:22.114Z,98538.91
2022-09-26T11:02:28.757Z,98543.84
2022-09-26T11:04:53.640Z,98535.63
2022-09-26T11:07:25.192Z,98539.44
2022-09-26T11:09:39.713Z,98540.16
2022-09-26T11:12:23.371Z,98556.03
2022-09-26T11:14:31.307Z,98553.94
2022-09-26T11:16:49.427Z,98552.06
2022-09-26T11:19:19.970Z,98554.56
2022-09-26T11:21:37.388Z,98560.91
2022-09-26T11:23:56.427Z,98567.31
2022-09-26T11:26:19.041Z,98561.63
2022-09-26T11:28:28.460Z,98558.66
2022-09-26T11:31:01.035Z,98556.44
2022-09-26T11:33:19.650Z,98553.63
2022-09-26T11:35:53.048Z,98570.66
2022-09-26T11:38:11.165Z,98569.22
2022-09-26T11:40:25.808Z,98566.66
2022-09-26T11:43:09.127Z,98568.63
2022-09-26T11:45:18.450Z,98575.66
2022-09-26T11:48:25.098Z,98572.16
2022-09-26T11:51:34.608Z,98579.88
2022-09-26T11:54:04.283Z,98580.59
2022-09-26T11:56:19.518Z,98587.56
2022-09-26T11:58:22.125Z,98586.59
2022-09-26T12:00:30.929Z,98593.44
2022-09-26T12:02:49.113Z,98586.44
2022-09-26T12:05:13.960Z,98587.59
2022-09-26T12:07:20.555Z,98588.59
2022-09-26T12:10:03.681Z,98590.28
2022-09-26T12:12:40.374Z,98593.03
2022-09-26T12:15:15.580Z,98597.16
2022-09-26T12:17:36.438Z,98587.47
2022-09-26T12:19:49.762Z,98593.38
2022-09-26T12:22:10.117Z,98598.44
2022-09-26T12:24:24.202Z,98595.69
2022-09-26T12:26:26.586Z,98598.28
2022-09-26T12:28:38.859Z,98600.09
2022-09-26T12:30:58.665Z,98596.84
2022-09-26T12:33:42.510Z,98597.13
2022-09-26T12:35:45.398Z,98602.63
2022-09-26T12:38:26.065Z,98602.00
2022-09-26T12:40:48.716Z,98602.31
2022-09-26T12:43:19.338Z,98603.38
2022-09-26T12:45:42.464Z,98609.59
2022-09-26T12:48:03.142Z,98602.69
2022-09-26T12:50:16.495Z,98607.16
2022-09-26T12:52:30.561Z,98611.50
2022-09-26T12:54:35.675Z,98613.31
2022-09-26T12:57:19.192Z,98609.94
2022-09-26T12:59:28.873Z,98614.44
2022-09-26T13:01:49.515Z,98604.13
2022-09-26T13:04:06.234Z,98612.09
2022-09-26T13:06:29.845Z,98615.56
2022-09-26T13:08:53.475Z,98624.34
2022-09-26T13:11:01.727Z,98618.25
2022-09-26T13:13:30.323Z,98618.25
2022-09-26T13:15:46.610Z,98620.03
2022-09-26T13:17:57.980Z,98622.63
2022-09-26T13:20:24.348Z,98618.94
2022-09-26T13:23:00.869Z,98622.28
2022-09-26T13:25:03.132Z,98630.03
2022-09-26T13:27:18.135Z,98624.63
2022-09-26T13:29:28.721Z,98633.97
2022-09-26T13:31:38.231Z,98621.75
2022-09-26T13:34:00.083Z,98621.34
2022-09-26T13:36:08.155Z,98639.16
2022-09-26T13:38:16.048Z,98630.88
2022-09-26T13:40:21.352Z,98634.03
2022-09-26T13:42:41.163Z,98626.69
2022-09-26T13:45:16.109Z,98617.06
2022-09-26T13:47:40.382Z,98633.53
2022-09-26T13:50:01.772Z,98631.16
2022-09-26T13:52:34.287Z,98629.84
2022-09-26T13:54:45.495Z,98634.81
2022-09-26T13:56:50.343Z,98631.81
2022-09-26T13:59:14.638Z,98634.91
2022-09-26T14:01:27.635Z,98630.19
2022-09-26T14:03:38.167Z,98637.69
2022-09-26T14:05:43.770Z,98641.47
2022-09-26T14:08:11.994Z,98634.13
2022-09-26T14:10:42.433Z,98635.38
2022-09-26T14:12:53.087Z,98642.63
2022-09-26T14:15:28.412Z,98640.19
2022-09-26T14:17:42.491Z,98641.34
2022-09-26T14:19:49.890Z,98639.06
2022-09-26T14:22:02.532Z,98647.09
2022-09-26T14:24:38.723Z,98648.19
2022-09-26T14:26:43.385Z,98648.38
2022-09-26T14:28:56.431Z,98644.06
2022-09-26T14:31:26.734Z,98657.09
2022-09-26T14:33:29.019Z,98652.78
2022-09-26T14:35:36.456Z,98652.78
2022-09-26T14:37:43.753Z,98652.78
2022-09-26T14:39:51.149Z,98662.47
2022-09-26T14:41:55.242Z,98672.03
2022-09-26T14:44:17.929Z,98665.97
2022-09-26T14:46:25.960Z,98675.69
2022-09-26T14:48:38.166Z,98665.47
2022-09-26T14:51:00.418Z,98670.91
2022-09-26T14:53:38.594Z,98677.16
2022-09-26T14:56:00.675Z,98673.94
2022-09-26T14:58:31.710Z,98671.53
2022-09-26T15:00:43.554Z,98668.34
2022-09-26T15:02:50.480Z,98660.69
2022-09-26T15:05:11.444Z,98651.34
2022-09-26T15:07:19.727Z,98664.47
2022-09-26T15:09:38.764Z,98670.69
2022-09-26T15:11:45.447Z,98680.31
2022-09-26T15:13:52.237Z,98683.06
2022-09-26T15:16:08.924Z,98688.38
2022-09-26T15:18:18.099Z,98678.03
2022-09-26T15:20:24.276Z,98681.53
2022-09-26T15:22:30.020Z,98691.97
2022-09-26T15:24:39.249Z,98698.06
2022-09-26T15:26:43.888Z,98686.03
2022-09-26T15:28:49.539Z,98708.66
2022-09-26T15:31:20.527Z,98702.59
2022-09-26T15:33:22.849Z,98701.84
2022-09-26T15:35:27.323Z,98695.81
2022-09-26T15:37:32.844Z,98707.16
2022-09-26T15:39:42.142Z,98705.47
2022-09-26T15:42:05.739Z,98708.16
2022-09-26T15:44:19.512Z,98693.50
2022-09-26T15:46:27.191Z,98708.19
2022-09-26T15:48:34.588Z,98696.09
2022-09-26T15:50:46.790Z,98699.59
2022-09-26T15:52:58.212Z,98722.97
2022-09-26T15:55:25.349Z,98723.03
2022-09-26T15:57:27.893Z,98716.16
2022-09-26T15:59:37.393Z,98723.16
2022-09-26T16:01:44.175Z,98724.03
2022-09-26T16:04:10.394Z,98716.34
2022-09-26T16:06:54.494Z,98726.75
2022-09-26T16:09:06.372Z,98726.03
2022-09-26T16:11:11.105Z,98710.50
2022-09-26T16:13:25.821Z,98711.38
2022-09-26T16:15:30.803Z,98724.41
2022-09-26T16:17:49.229Z,98720.13
2022-09-26T16:20:00.877Z,98693.38
2022-09-26T16:22:26.846Z,98739.19
2022-09-26T16:24:41.669Z,98720.22
2022-09-26T16:26:47.547Z,98720.22
2022-09-26T16:28:54.416Z,98721.06
2022-09-26T16:31:10.688Z,98739.19
2022-09-26T16:33:31.433Z,98727.88
2022-09-26T16:35:44.924Z,98699.34
2022-09-26T16:38:47.531Z,98733.88
2022-09-26T16:40:52.384Z,98720.03
2022-09-26T16:43:12.764Z,98737.31
2022-09-26T16:45:18.439Z,98727.78
2022-09-26T16:47:43.292Z,98725.09
2022-09-26T16:49:48.603Z,98706.97
2022-09-26T16:52:29.837Z,98733.69
2022-09-26T16:54:33.146Z,98717.31
2022-09-26T16:56:39.429Z,98711.22
2022-09-26T16:59:02.875Z,98742.28
2022-09-26T17:01:23.669Z,98722.41
2022-09-26T17:03:32.617Z,98740.50
2022-09-26T17:05:35.059Z,98731.03
2022-09-26T17:07:38.024Z,98731.84
2022-09-26T17:09:42.493Z,98736.13
2022-09-26T17:11:50.210Z,98733.53
2022-09-26T17:13:52.320Z,98723.16
2022-09-26T17:15:56.497Z,98726.59
2022-09-26T17:18:01.120Z,98735.19
2022-09-26T17:20:05.260Z,98738.66
2022-09-26T17:22:23.896Z,98740.38
2022-09-26T17:24:28.819Z,98744.72
2022-09-26T17:26:35.218Z,98749.88
2022-09-26T17:28:40.455Z,98747.28
2022-09-26T17:30:45.930Z,98742.03
2022-09-26T17:32:51.824Z,98750.66
2022-09-26T17:34:58.110Z,98753.25
2022-09-26T17:37:00.541Z,98744.53
2022-09-26T17:39:02.932Z,98750.56
2022-09-26T17:41:05.172Z,98754.88
2022-09-26T17:43:07.457Z,98751.44
2022-09-26T17:45:10.584Z,98748.78
2022-09-26T17:47:13.637Z,98753.97
2022-09-26T17:49:25.777Z,98765.19
2022-09-26T17:51:29.434Z,98753.91
2022-09-26T17:53:37.293Z,98751.25
2022-09-26T17:55:39.436Z,98759.94
2022-09-26T17:57:42.149Z,98757.34
2022-09-26T17:59:44.971Z,98762.53
2022-09-26T18:01:48.827Z,98762.47
2022-09-26T18:03:55.901Z,98768.53
2022-09-26T18:05:58.096Z,98768.50
2022-09-26T18:08:01.847Z,98772.00
2022-09-26T18:10:07.560Z,98778.94
2022-09-26T18:12:22.133Z,98771.06
2022-09-26T18:14:24.311Z,98777.09
2022-09-26T18:16:26.820Z,98776.22
2022-09-26T18:18:32.614Z,98778.75
2022-09-26T18:20:41.181Z,98791.78
2022-09-26T18:22:45.004Z,98786.50
2022-09-26T18:24:53.528Z,98789.09
2022-09-26T18:27:03.505Z,98780.38
2022-09-26T18:29:13.666Z,98779.56
2022-09-26T18:31:15.962Z,98780.38
2022-09-26T18:33:22.421Z,98779.56
2022-09-26T18:35:32.720Z,98777.00
2022-09-26T18:37:35.120Z,98780.44
2022-09-26T18:39:37.371Z,98777.84
2022-09-26T18:41:48.696Z,98775.25
2022-09-26T18:44:11.936Z,98776.16
2022-09-26T18:46:20.243Z,98785.72
2022-09-26T18:48:32.998Z,98785.75
2022-09-26T18:50:39.991Z,98783.19
2022-09-26T18:52:45.214Z,98765.91
2022-09-26T18:55:07.319Z,98778.97
2022-09-26T18:57:29.824Z,98778.19
2022-09-26T18:59:34.816Z,98792.06
2022-09-26T19:01:44.506Z,98793.00
2022-09-26T19:03:50.825Z,98784.28
2022-09-26T19:05:56.237Z,98780.91
2022-09-26T19:07:58.463Z,98779.25
2022-09-26T19:10:00.909Z,98787.94
2022-09-26T19:12:04.014Z,98781.09
2022-09-26T19:14:23.460Z,98784.59
2022-09-26T19:16:26.307Z,98780.31
2022-09-26T19:18:28.631Z,98770.00
2022-09-26T19:20:30.740Z,98776.09
2022-09-26T19:22:33.835Z,98770.16
2022-09-26T19:24:46.745Z,98758.06
2022-09-26T19:26:52.809Z,98759.84
2022-09-26T19:28:56.872Z,98766.84
2022-09-26T19:30:59.629Z,98779.00
2022-09-26T19:33:01.894Z,98776.47
2022-09-26T19:35:29.541Z,98781.72
2022-09-26T19:37:32.183Z,98785.25
2022-09-26T19:39:34.845Z,98768.84
2022-09-26T19:41:37.151Z,98775.81
2022-09-26T19:43:39.275Z,98794.03
2022-09-26T19:45:41.782Z,98780.25
2022-09-26T19:47:45.586Z,98801.06
2022-09-26T19:49:49.648Z,98793.28
2022-09-26T19:51:52.020Z,98787.25
2022-09-26T19:53:55.185Z,98788.13
2022-09-26T19:55:58.817Z,98783.84
2022-09-26T19:58:08.158Z,98802.88
2022-09-26T20:00:13.762Z,98793.38
2022-09-26T20:02:18.905Z,98797.72
2022-09-26T20:04:21.587Z,98802.06
2022-09-26T20:06:26.063Z,98792.53
2022-09-26T20:08:28.448Z,98798.63
2022-09-26T20:10:30.703Z,98785.66
2022-09-26T20:12:32.839Z,98805.56
2022-09-26T20:14:35.143Z,98801.25
2022-09-26T20:16:38.807Z,98811.66
2022-09-26T20:18:42.016Z,98813.38
2022-09-26T20:20:49.534Z,98791.72
2022-09-26T20:22:53.969Z,98806.47
2022-09-26T20:24:57.267Z,98823.78
2022-09-26T20:27:04.476Z,98824.66
2022-09-26T20:29:19.773Z,98823.78
2022-09-26T20:31:24.447Z,98818.59
2022-09-26T20:33:38.017Z,98831.59
2022-09-26T20:35:44.767Z,98814.25
2022-09-26T20:37:47.129Z,98825.50
2022-09-26T20:39:49.692Z,98829.84
2022-09-26T20:41:52.913Z,98820.28
2022-09-26T20:44:01.373Z,98815.94
2022-09-26T20:46:06.958Z,98821.16
2022-09-26T20:48:18.539Z,98815.09
2022-09-26T20:50:20.935Z,98835.00
2022-09-26T20:52:24.584Z,98834.16
2022-09-26T20:54:33.487Z,98842.78
2022-09-26T20:56:35.813Z,98846.25
2022-09-26T20:58:38.072Z,98841.06
2022-09-26T21:00:44.831Z,98817.66
2022-09-26T21:02:51.539Z,98835.84
2022-09-26T21:04:54.283Z,98836.72
2022-09-26T21:06:56.675Z,98828.03
2022-09-26T21:08:59.194Z,98833.25
2022-09-26T21:11:01.563Z,98847.97
2022-09-26T21:13:03.912Z,98820.25
2022-09-26T21:15:06.423Z,98844.50
2022-09-26T21:17:23.503Z,98843.59
2022-09-26T21:19:27.966Z,98829.75
2022-09-26T21:21:40.998Z,98826.31
2022-09-26T21:23:50.945Z,98821.97
2022-09-26T21:25:53.362Z,98832.34
2022-09-26T21:28:02.831Z,98833.22
2022-09-26T21:30:05.231Z,98838.41
2022-09-26T21:32:14.435Z,98837.56
2022-09-26T21:34:24.854Z,98821.97
2022-09-26T21:36:35.152Z,98817.59
2022-09-26T21:38:37.858Z,98829.75
2022-09-26T21:40:43.207Z,98817.59
2022-09-26T21:42:49.694Z,98831.47
2022-09-26T21:44:57.378Z,98848.75
2022-09-26T21:46:59.807Z,98837.50
2022-09-26T21:49:02.091Z,98825.38
2022-09-26T21:51:04.984Z,98843.56
2022-09-26T21:53:14.723Z,98840.13
2022-09-26T21:55:24.051Z,98841.81
2022-09-26T21:57:30.412Z,98833.16
2022-09-26T21:59:32.773Z,98836.66
2022-09-26T22:01:34.914Z,98846.16
2022-09-26T22:03:38.189Z,98820.16
2022-09-26T22:05:40.500Z,98833.13
2022-09-26T22:07:43.056Z,98834.84
2022-09-26T22:09:45.254Z,98803.69
2022-09-26T22:11:47.507Z,98843.53
2022-09-26T22:13:49.676Z,98838.31
2022-09-26T22:15:51.908Z,98843.50
2022-09-26T22:17:54.638Z,98844.34
2022-09-26T22:19:56.814Z,98846.94
2022-09-26T22:21:59.873Z,98845.19
2022-09-26T22:24:02.982Z,98846.06
2022-09-26T22:26:06.161Z,98846.06
2022-09-26T22:28:08.250Z,98843.47
2022-09-26T22:30:13.102Z,98846.03
2022-09-26T22:32:15.214Z,98854.72
2022-09-26T22:34:17.667Z,98848.66
2022-09-26T22:36:19.578Z,98848.66
2022-09-26T22:38:21.744Z,98847.78
2022-09-26T22:40:23.901Z,98852.09
2022-09-26T22:42:26.337Z,98852.06
2022-09-26T22:44:28.265Z,98855.53
2022-09-26T22:46:33.876Z,98852.94
2022-09-26T22:48:38.307Z,98856.41
2022-09-26T22:50:44.129Z,98851.19
2022-09-26T22:52:47.014Z,98852.06
2022-09-26T22:54:49.231Z,98846.00
2022-09-26T22:56:51.438Z,98866.78
2022-09-26T22:58:53.728Z,98871.13
2022-09-26T23:01:00.082Z,98863.38
2022-09-26T23:03:02.278Z,98864.22
2022-09-26T23:05:04.802Z,98851.25
2022-09-26T23:07:06.957Z,98861.66
2022-09-26T23:09:09.299Z,98857.28
2022-09-26T23:11:12.267Z,98863.38
2022-09-26T23:13:14.466Z,98849.47
2022-09-26T23:15:18.364Z,98864.19
2022-09-26T23:17:20.467Z,98842.47
2022-09-26T23:19:22.804Z,98852.91
2022-09-26T23:21:27.528Z,98809.56
2022-09-26T23:23:29.811Z,98846.81
2022-09-26T23:25:32.232Z,98863.28
2022-09-26T23:27:44.588Z,98832.03
2022-09-26T23:29:49.357Z,98825.13
2022-09-26T23:31:51.516Z,98825.09
2022-09-26T23:33:54.292Z,98850.22
2022-09-26T23:36:02.758Z,98856.28
2022-09-26T23:38:05.538Z,98840.66
2022-09-26T23:40:08.736Z,98843.25
2022-09-26T23:42:11.603Z,98850.16
2022-09-26T23:44:13.745Z,98851.00
2022-09-26T23:46:16.624Z,98809.34
2022-09-26T23:48:18.638Z,98854.41
2022-09-26T23:50:21.443Z,98846.56
2022-09-26T23:52:23.731Z,98839.63
2022-09-26T23:54:25.764Z,98850.03
2022-09-26T23:56:28.313Z,98850.91
2022-09-26T23:58:30.895Z,98844.00
